aviador You're here:

KBIX Decoded Metar

BILOXI in MS, USA
Report Time2018-01-17 19:56:00
UTC Time2018-01-17 20:21:19
Flight Rules vfr VFR
Wind360° at 11 kt
W.Decomp.*RWY 03: 9.4 kt HW 5.7 kt LCW
Visibility9999 m
Phenomena:N/A
Clouds:N/A
Expected CloudBase > 5,200 ft AGL from Temp-Dew spread
CeilingNone
Temp01°C (ISA -14)
Dew Point-12°C (38% RH)
AAT-6.1°C
QNH1034 hPa
Density Alt-2,343 ft
Elevation33 ft
Report Wrong Elevation
Raw Report
KBIX 171956Z AUTO 36011KT 10SM CLR 01/M12 A3053 RMK AO2 SLP342
T00081123=

Extra information for KBIX:More info

Metar Taf Metar & Taf Last 4 Metars F.Rules Stats Wind Profile Meteogram Temp Stats Airport Information Weather charts Add Link Nearby VenuesMetar ALERT Operation Metar Decoded Social comments

AIRNAV info for KBIX